sensor_id;sensor_type;location;lat;lon;timestamp;P1;durP1;ratioP1;P2;durP2;ratioP2
10586;SDS011;5341;47.606;7.576;2023-05-10T00:02:03;1.70;;;0.80;;
10586;SDS011;5341;47.606;7.576;2023-05-10T00:04:30;3.25;;;1.00;;
10586;SDS011;5341;47.606;7.576;2023-05-10T00:06:57;1.23;;;0.95;;
10586;SDS011;5341;47.606;7.576;2023-05-10T00:09:25;1.67;;;0.95;;
10586;SDS011;5341;47.606;7.576;2023-05-10T00:11:52;1.35;;;0.80;;
10586;SDS011;5341;47.606;7.576;2023-05-10T00:14:22;2.45;;;1.02;;
10586;SDS011;5341;47.606;7.576;2023-05-10T00:16:49;2.47;;;0.80;;
10586;SDS011;5341;47.606;7.576;2023-05-10T00:19:16;2.65;;;0.98;;
10586;SDS011;5341;47.606;7.576;2023-05-10T00:21:44;2.05;;;1.10;;
10586;SDS011;5341;47.606;7.576;2023-05-10T00:24:11;3.90;;;1.17;;
10586;SDS011;5341;47.606;7.576;2023-05-10T00:26:38;2.92;;;1.00;;
10586;SDS011;5341;47.606;7.576;2023-05-10T00:29:07;2.08;;;1.05;;
10586;SDS011;5341;47.606;7.576;2023-05-10T00:31:36;1.80;;;0.80;;
10586;SDS011;5341;47.606;7.576;2023-05-10T00:34:04;2.70;;;1.20;;
10586;SDS011;5341;47.606;7.576;2023-05-10T00:36:31;0.75;;;0.75;;
10586;SDS011;5341;47.606;7.576;2023-05-10T00:38:59;3.88;;;0.90;;
10586;SDS011;5341;47.606;7.576;2023-05-10T00:41:26;3.72;;;1.10;;
10586;SDS011;5341;47.606;7.576;2023-05-10T00:43:54;1.83;;;0.90;;
10586;SDS011;5341;47.606;7.576;2023-05-10T00:46:22;1.95;;;1.00;;
10586;SDS011;5341;47.606;7.576;2023-05-10T00:48:51;2.50;;;0.95;;
10586;SDS011;5341;47.606;7.576;2023-05-10T00:51:19;0.95;;;0.77;;
10586;SDS011;5341;47.606;7.576;2023-05-10T00:53:47;4.07;;;1.02;;
10586;SDS011;5341;47.606;7.576;2023-05-10T00:56:16;1.75;;;0.93;;
10586;SDS011;5341;47.606;7.576;2023-05-10T00:58:45;2.08;;;0.80;;
10586;SDS011;5341;47.606;7.576;2023-05-10T01:01:13;2.15;;;0.95;;
10586;SDS011;5341;47.606;7.576;2023-05-10T01:03:41;2.25;;;1.05;;
10586;SDS011;5341;47.606;7.576;2023-05-10T01:06:10;2.20;;;1.10;;
10586;SDS011;5341;47.606;7.576;2023-05-10T01:08:37;1.05;;;0.90;;
10586;SDS011;5341;47.606;7.576;2023-05-10T01:11:06;2.55;;;0.90;;
10586;SDS011;5341;47.606;7.576;2023-05-10T01:13:34;2.35;;;0.98;;
10586;SDS011;5341;47.606;7.576;2023-05-10T01:16:04;0.88;;;0.88;;
10586;SDS011;5341;47.606;7.576;2023-05-10T01:18:33;0.80;;;0.80;;
10586;SDS011;5341;47.606;7.576;2023-05-10T01:21:10;4.13;;;1.15;;
10586;SDS011;5341;47.606;7.576;2023-05-10T01:23:55;2.65;;;1.20;;
10586;SDS011;5341;47.606;7.576;2023-05-10T01:33:00;2.70;;;1.08;;
10586;SDS011;5341;47.606;7.576;2023-05-10T01:35:37;1.58;;;0.93;;
10586;SDS011;5341;47.606;7.576;2023-05-10T01:38:11;2.55;;;1.02;;
10586;SDS011;5341;47.606;7.576;2023-05-10T01:40:48;1.27;;;0.90;;
10586;SDS011;5341;47.606;7.576;2023-05-10T01:43:26;2.08;;;1.00;;
10586;SDS011;5341;47.606;7.576;2023-05-10T01:45:59;2.92;;;0.90;;
10586;SDS011;5341;47.606;7.576;2023-05-10T01:48:37;0.80;;;0.80;;
10586;SDS011;5341;47.606;7.576;2023-05-10T01:51:13;2.72;;;0.90;;
10586;SDS011;5341;47.606;7.576;2023-05-10T01:53:43;1.83;;;1.10;;
10586;SDS011;5341;47.606;7.576;2023-05-10T01:56:13;2.25;;;0.90;;
10586;SDS011;5341;47.606;7.576;2023-05-10T01:58:43;1.42;;;1.00;;
10586;SDS011;5341;47.606;7.576;2023-05-10T02:01:14;1.42;;;0.75;;
10586;SDS011;5341;47.606;7.576;2023-05-10T02:03:45;2.47;;;1.00;;
10586;SDS011;5341;47.606;7.576;2023-05-10T02:06:14;2.05;;;0.90;;
10586;SDS011;5341;47.606;7.576;2023-05-10T02:08:45;1.73;;;1.05;;
10586;SDS011;5341;47.606;7.576;2023-05-10T02:11:13;1.70;;;0.90;;
10586;SDS011;5341;47.606;7.576;2023-05-10T02:13:40;1.58;;;0.80;;
10586;SDS011;5341;47.606;7.576;2023-05-10T02:16:10;1.77;;;1.00;;
10586;SDS011;5341;47.606;7.576;2023-05-10T02:18:39;3.72;;;1.10;;
10586;SDS011;5341;47.606;7.576;2023-05-10T02:21:09;1.20;;;0.93;;
10586;SDS011;5341;47.606;7.576;2023-05-10T02:23:38;3.55;;;1.17;;
10586;SDS011;5341;47.606;7.576;2023-05-10T02:26:06;3.17;;;1.02;;
10586;SDS011;5341;47.606;7.576;2023-05-10T02:28:35;2.35;;;1.02;;
10586;SDS011;5341;47.606;7.576;2023-05-10T02:31:04;1.58;;;1.00;;
10586;SDS011;5341;47.606;7.576;2023-05-10T02:33:37;2.13;;;1.17;;
10586;SDS011;5341;47.606;7.576;2023-05-10T02:36:06;2.05;;;1.00;;
10586;SDS011;5341;47.606;7.576;2023-05-10T02:38:36;4.63;;;1.02;;
10586;SDS011;5341;47.606;7.576;2023-05-10T02:41:04;2.28;;;1.00;;
10586;SDS011;5341;47.606;7.576;2023-05-10T02:43:34;1.95;;;1.10;;
10586;SDS011;5341;47.606;7.576;2023-05-10T02:46:02;1.55;;;0.90;;
10586;SDS011;5341;47.606;7.576;2023-05-10T02:48:30;0.95;;;0.80;;
10586;SDS011;5341;47.606;7.576;2023-05-10T02:51:02;1.65;;;0.95;;
10586;SDS011;5341;47.606;7.576;2023-05-10T02:53:35;3.13;;;0.90;;
10586;SDS011;5341;47.606;7.576;2023-05-10T02:56:06;1.52;;;0.98;;
10586;SDS011;5341;47.606;7.576;2023-05-10T02:58:38;2.40;;;0.93;;
10586;SDS011;5341;47.606;7.576;2023-05-10T03:01:06;1.20;;;0.88;;
10586;SDS011;5341;47.606;7.576;2023-05-10T03:03:34;4.03;;;1.25;;
10586;SDS011;5341;47.606;7.576;2023-05-10T03:06:01;2.20;;;0.88;;
10586;SDS011;5341;47.606;7.576;2023-05-10T03:08:29;1.00;;;0.85;;
10586;SDS011;5341;47.606;7.576;2023-05-10T03:11:04;2.38;;;0.93;;
10586;SDS011;5341;47.606;7.576;2023-05-10T03:13:46;0.98;;;0.90;;
10586;SDS011;5341;47.606;7.576;2023-05-10T03:16:25;2.30;;;0.98;;
10586;SDS011;5341;47.606;7.576;2023-05-10T03:18:56;2.55;;;0.80;;
10586;SDS011;5341;47.606;7.576;2023-05-10T03:21:28;3.25;;;1.10;;
10586;SDS011;5341;47.606;7.576;2023-05-10T03:23:58;2.58;;;0.88;;
10586;SDS011;5341;47.606;7.576;2023-05-10T03:26:29;3.90;;;1.00;;
10586;SDS011;5341;47.606;7.576;2023-05-10T03:29:06;1.65;;;0.93;;
10586;SDS011;5341;47.606;7.576;2023-05-10T03:31:35;2.97;;;1.08;;
10586;SDS011;5341;47.606;7.576;2023-05-10T03:34:02;6.20;;;1.10;;
10586;SDS011;5341;47.606;7.576;2023-05-10T03:36:30;2.70;;;1.00;;
10586;SDS011;5341;47.606;7.576;2023-05-10T03:38:57;2.72;;;1.10;;
10586;SDS011;5341;47.606;7.576;2023-05-10T03:41:25;1.85;;;0.90;;
10586;SDS011;5341;47.606;7.576;2023-05-10T03:43:54;1.15;;;0.70;;
10586;SDS011;5341;47.606;7.576;2023-05-10T03:46:22;2.03;;;1.08;;
10586;SDS011;5341;47.606;7.576;2023-05-10T03:48:49;3.53;;;1.00;;
10586;SDS011;5341;47.606;7.576;2023-05-10T03:51:17;2.08;;;1.00;;
10586;SDS011;5341;47.606;7.576;2023-05-10T03:53:44;4.25;;;1.17;;
10586;SDS011;5341;47.606;7.576;2023-05-10T03:56:12;3.58;;;1.13;;
10586;SDS011;5341;47.606;7.576;2023-05-10T03:58:39;2.95;;;0.90;;
10586;SDS011;5341;47.606;7.576;2023-05-10T04:01:08;2.35;;;1.10;;
10586;SDS011;5341;47.606;7.576;2023-05-10T04:03:35;1.30;;;0.90;;
10586;SDS011;5341;47.606;7.576;2023-05-10T04:06:04;0.98;;;0.90;;
10586;SDS011;5341;47.606;7.576;2023-05-10T04:08:34;2.30;;;1.10;;
10586;SDS011;5341;47.606;7.576;2023-05-10T04:11:05;1.45;;;0.88;;
10586;SDS011;5341;47.606;7.576;2023-05-10T04:13:33;1.00;;;0.93;;
10586;SDS011;5341;47.606;7.576;2023-05-10T04:16:01;2.65;;;1.00;;
10586;SDS011;5341;47.606;7.576;2023-05-10T04:18:30;2.97;;;1.00;;
10586;SDS011;5341;47.606;7.576;2023-05-10T04:20:57;1.85;;;1.10;;
10586;SDS011;5341;47.606;7.576;2023-05-10T04:23:25;4.50;;;1.15;;
10586;SDS011;5341;47.606;7.576;2023-05-10T04:25:58;2.35;;;1.27;;
10586;SDS011;5341;47.606;7.576;2023-05-10T04:28:26;0.80;;;0.80;;
10586;SDS011;5341;47.606;7.576;2023-05-10T04:30:53;1.15;;;0.95;;
10586;SDS011;5341;47.606;7.576;2023-05-10T04:33:27;1.52;;;1.00;;
10586;SDS011;5341;47.606;7.576;2023-05-10T04:35:57;2.88;;;1.17;;
10586;SDS011;5341;47.606;7.576;2023-05-10T04:38:24;0.80;;;0.80;;
10586;SDS011;5341;47.606;7.576;2023-05-10T04:40:52;1.85;;;1.05;;
10586;SDS011;5341;47.606;7.576;2023-05-10T04:43:19;2.35;;;0.80;;
10586;SDS011;5341;47.606;7.576;2023-05-10T04:45:47;3.80;;;1.15;;
10586;SDS011;5341;47.606;7.576;2023-05-10T04:48:15;2.38;;;0.82;;
10586;SDS011;5341;47.606;7.576;2023-05-10T04:50:44;1.65;;;1.10;;
10586;SDS011;5341;47.606;7.576;2023-05-10T04:53:11;2.65;;;1.13;;
10586;SDS011;5341;47.606;7.576;2023-05-10T04:55:38;1.33;;;0.80;;
10586;SDS011;5341;47.606;7.576;2023-05-10T04:58:06;2.63;;;1.00;;
10586;SDS011;5341;47.606;7.576;2023-05-10T05:00:33;2.10;;;1.10;;
10586;SDS011;5341;47.606;7.576;2023-05-10T05:03:01;1.52;;;1.10;;
10586;SDS011;5341;47.606;7.576;2023-05-10T05:05:28;7.28;;;1.13;;
10586;SDS011;5341;47.606;7.576;2023-05-10T05:07:57;1.27;;;0.98;;
10586;SDS011;5341;47.606;7.576;2023-05-10T05:10:24;2.65;;;0.90;;
10586;SDS011;5341;47.606;7.576;2023-05-10T05:12:52;2.35;;;1.00;;
10586;SDS011;5341;47.606;7.576;2023-05-10T05:15:19;4.22;;;1.23;;
10586;SDS011;5341;47.606;7.576;2023-05-10T05:17:47;1.80;;;1.10;;
10586;SDS011;5341;47.606;7.576;2023-05-10T05:20:14;2.97;;;0.95;;
10586;SDS011;5341;47.606;7.576;2023-05-10T05:22:41;3.08;;;0.93;;
10586;SDS011;5341;47.606;7.576;2023-05-10T05:25:10;2.90;;;0.90;;
10586;SDS011;5341;47.606;7.576;2023-05-10T05:27:38;1.30;;;0.93;;
10586;SDS011;5341;47.606;7.576;2023-05-10T05:30:06;1.15;;;0.80;;
10586;SDS011;5341;47.606;7.576;2023-05-10T05:32:34;1.02;;;0.75;;
10586;SDS011;5341;47.606;7.576;2023-05-10T05:35:01;1.20;;;1.00;;
10586;SDS011;5341;47.606;7.576;2023-05-10T05:37:29;1.38;;;1.00;;
10586;SDS011;5341;47.606;7.576;2023-05-10T05:39:56;1.10;;;0.88;;
10586;SDS011;5341;47.606;7.576;2023-05-10T05:42:25;2.58;;;1.10;;
10586;SDS011;5341;47.606;7.576;2023-05-10T05:44:52;1.92;;;1.17;;
10586;SDS011;5341;47.606;7.576;2023-05-10T05:47:20;2.65;;;1.20;;
10586;SDS011;5341;47.606;7.576;2023-05-10T05:49:47;2.47;;;1.10;;
10586;SDS011;5341;47.606;7.576;2023-05-10T05:52:14;2.15;;;1.20;;
10586;SDS011;5341;47.606;7.576;2023-05-10T05:54:42;2.83;;;1.10;;
10586;SDS011;5341;47.606;7.576;2023-05-10T05:57:09;2.92;;;1.15;;
10586;SDS011;5341;47.606;7.576;2023-05-10T05:59:38;3.20;;;1.30;;
10586;SDS011;5341;47.606;7.576;2023-05-10T06:02:09;3.67;;;1.30;;
10586;SDS011;5341;47.606;7.576;2023-05-10T06:04:36;2.35;;;1.50;;
10586;SDS011;5341;47.606;7.576;2023-05-10T06:07:04;3.72;;;1.40;;
10586;SDS011;5341;47.606;7.576;2023-05-10T06:09:31;1.58;;;1.20;;
10586;SDS011;5341;47.606;7.576;2023-05-10T06:11:58;3.20;;;1.70;;
10586;SDS011;5341;47.606;7.576;2023-05-10T06:14:26;5.70;;;1.38;;
10586;SDS011;5341;47.606;7.576;2023-05-10T06:16:56;3.72;;;1.50;;
10586;SDS011;5341;47.606;7.576;2023-05-10T06:19:25;3.78;;;1.50;;
10586;SDS011;5341;47.606;7.576;2023-05-10T06:21:53;2.47;;;1.30;;
10586;SDS011;5341;47.606;7.576;2023-05-10T06:24:20;3.25;;;1.40;;
10586;SDS011;5341;47.606;7.576;2023-05-10T06:26:47;2.17;;;1.30;;
10586;SDS011;5341;47.606;7.576;2023-05-10T06:29:15;4.00;;;1.23;;
10586;SDS011;5341;47.606;7.576;2023-05-10T06:31:43;4.72;;;1.55;;
10586;SDS011;5341;47.606;7.576;2023-05-10T06:34:11;3.10;;;1.20;;
10586;SDS011;5341;47.606;7.576;2023-05-10T06:36:39;2.05;;;1.30;;
10586;SDS011;5341;47.606;7.576;2023-05-10T06:39:07;2.90;;;1.50;;
10586;SDS011;5341;47.606;7.576;2023-05-10T06:41:34;4.20;;;1.65;;
10586;SDS011;5341;47.606;7.576;2023-05-10T06:44:02;2.70;;;1.48;;
10586;SDS011;5341;47.606;7.576;2023-05-10T06:46:30;2.83;;;1.33;;
10586;SDS011;5341;47.606;7.576;2023-05-10T06:48:57;1.48;;;1.17;;
10586;SDS011;5341;47.606;7.576;2023-05-10T06:51:26;3.22;;;1.38;;
10586;SDS011;5341;47.606;7.576;2023-05-10T06:53:54;3.20;;;1.45;;
10586;SDS011;5341;47.606;7.576;2023-05-10T06:56:21;2.75;;;1.40;;
10586;SDS011;5341;47.606;7.576;2023-05-10T06:58:48;2.50;;;1.25;;
10586;SDS011;5341;47.606;7.576;2023-05-10T07:01:16;2.30;;;1.30;;
10586;SDS011;5341;47.606;7.576;2023-05-10T07:03:43;2.53;;;1.27;;
10586;SDS011;5341;47.606;7.576;2023-05-10T07:06:11;2.55;;;1.40;;
10586;SDS011;5341;47.606;7.576;2023-05-10T07:08:40;1.83;;;1.25;;
10586;SDS011;5341;47.606;7.576;2023-05-10T07:11:07;3.53;;;1.40;;
10586;SDS011;5341;47.606;7.576;2023-05-10T07:13:35;1.35;;;1.20;;
10586;SDS011;5341;47.606;7.576;2023-05-10T07:16:04;3.05;;;1.30;;
10586;SDS011;5341;47.606;7.576;2023-05-10T07:18:33;3.17;;;1.17;;
10586;SDS011;5341;47.606;7.576;2023-05-10T07:21:00;1.52;;;1.20;;
10586;SDS011;5341;47.606;7.576;2023-05-10T07:23:28;1.90;;;1.20;;
10586;SDS011;5341;47.606;7.576;2023-05-10T07:25:58;2.90;;;1.50;;
10586;SDS011;5341;47.606;7.576;2023-05-10T07:28:26;1.73;;;1.13;;
10586;SDS011;5341;47.606;7.576;2023-05-10T07:30:53;1.90;;;1.30;;
10586;SDS011;5341;47.606;7.576;2023-05-10T07:33:20;5.00;;;1.40;;
10586;SDS011;5341;47.606;7.576;2023-05-10T07:35:48;2.80;;;1.50;;
10586;SDS011;5341;47.606;7.576;2023-05-10T07:38:15;2.70;;;1.33;;
10586;SDS011;5341;47.606;7.576;2023-05-10T07:40:42;1.50;;;1.25;;
10586;SDS011;5341;47.606;7.576;2023-05-10T07:43:11;4.70;;;1.48;;
10586;SDS011;5341;47.606;7.576;2023-05-10T07:45:38;5.13;;;1.60;;
10586;SDS011;5341;47.606;7.576;2023-05-10T07:48:06;4.60;;;1.60;;
10586;SDS011;5341;47.606;7.576;2023-05-10T07:50:33;4.03;;;1.48;;
10586;SDS011;5341;47.606;7.576;2023-05-10T07:53:01;4.30;;;1.30;;
10586;SDS011;5341;47.606;7.576;2023-05-10T07:55:29;5.70;;;1.50;;
10586;SDS011;5341;47.606;7.576;2023-05-10T07:57:56;3.47;;;1.60;;
10586;SDS011;5341;47.606;7.576;2023-05-10T08:00:28;4.47;;;1.27;;
10586;SDS011;5341;47.606;7.576;2023-05-10T08:02:55;3.45;;;1.30;;
10586;SDS011;5341;47.606;7.576;2023-05-10T08:05:23;2.10;;;1.15;;
10586;SDS011;5341;47.606;7.576;2023-05-10T08:07:50;4.35;;;1.45;;
10586;SDS011;5341;47.606;7.576;2023-05-10T08:10:18;4.90;;;1.40;;
10586;SDS011;5341;47.606;7.576;2023-05-10T08:12:45;2.63;;;1.40;;
10586;SDS011;5341;47.606;7.576;2023-05-10T08:15:12;3.92;;;1.40;;
10586;SDS011;5341;47.606;7.576;2023-05-10T08:17:41;4.40;;;1.40;;
10586;SDS011;5341;47.606;7.576;2023-05-10T08:20:09;3.55;;;1.50;;
10586;SDS011;5341;47.606;7.576;2023-05-10T08:22:38;4.32;;;1.48;;
10586;SDS011;5341;47.606;7.576;2023-05-10T08:25:05;3.35;;;1.25;;
10586;SDS011;5341;47.606;7.576;2023-05-10T08:27:33;2.22;;;1.13;;
10586;SDS011;5341;47.606;7.576;2023-05-10T08:30:01;3.40;;;1.60;;
10586;SDS011;5341;47.606;7.576;2023-05-10T08:32:28;2.85;;;1.40;;
10586;SDS011;5341;47.606;7.576;2023-05-10T08:34:57;2.42;;;1.38;;
10586;SDS011;5341;47.606;7.576;2023-05-10T08:37:25;2.53;;;1.10;;
10586;SDS011;5341;47.606;7.576;2023-05-10T08:39:52;3.25;;;1.30;;
10586;SDS011;5341;47.606;7.576;2023-05-10T08:42:20;1.70;;;1.13;;
10586;SDS011;5341;47.606;7.576;2023-05-10T08:44:52;3.55;;;1.30;;
10586;SDS011;5341;47.606;7.576;2023-05-10T08:47:21;2.85;;;1.20;;
10586;SDS011;5341;47.606;7.576;2023-05-10T08:49:49;2.33;;;1.10;;
10586;SDS011;5341;47.606;7.576;2023-05-10T08:52:18;1.80;;;1.10;;
10586;SDS011;5341;47.606;7.576;2023-05-10T08:54:48;2.17;;;1.10;;
10586;SDS011;5341;47.606;7.576;2023-05-10T08:57:16;4.97;;;1.08;;
10586;SDS011;5341;47.606;7.576;2023-05-10T08:59:44;4.75;;;1.10;;
10586;SDS011;5341;47.606;7.576;2023-05-10T09:02:11;1.13;;;1.02;;
10586;SDS011;5341;47.606;7.576;2023-05-10T09:04:40;3.10;;;1.27;;
10586;SDS011;5341;47.606;7.576;2023-05-10T09:07:08;1.88;;;1.13;;
10586;SDS011;5341;47.606;7.576;2023-05-10T09:09:39;2.75;;;1.02;;
10586;SDS011;5341;47.606;7.576;2023-05-10T09:12:07;2.70;;;1.15;;
10586;SDS011;5341;47.606;7.576;2023-05-10T09:14:36;2.15;;;1.20;;
10586;SDS011;5341;47.606;7.576;2023-05-10T09:17:05;2.20;;;1.08;;
10586;SDS011;5341;47.606;7.576;2023-05-10T09:19:33;3.05;;;1.10;;
10586;SDS011;5341;47.606;7.576;2023-05-10T09:22:00;3.40;;;1.20;;
10586;SDS011;5341;47.606;7.576;2023-05-10T09:24:29;2.15;;;1.02;;
10586;SDS011;5341;47.606;7.576;2023-05-10T09:26:59;2.40;;;0.93;;
10586;SDS011;5341;47.606;7.576;2023-05-10T09:29:26;1.65;;;1.20;;
10586;SDS011;5341;47.606;7.576;2023-05-10T09:32:05;3.60;;;1.20;;
10586;SDS011;5341;47.606;7.576;2023-05-10T09:34:33;1.45;;;1.00;;
10586;SDS011;5341;47.606;7.576;2023-05-10T09:37:05;2.42;;;1.20;;
10586;SDS011;5341;47.606;7.576;2023-05-10T09:39:33;2.45;;;1.23;;
10586;SDS011;5341;47.606;7.576;2023-05-10T09:42:04;2.47;;;1.20;;
10586;SDS011;5341;47.606;7.576;2023-05-10T09:44:32;2.72;;;1.10;;
10586;SDS011;5341;47.606;7.576;2023-05-10T09:47:00;3.25;;;1.13;;
10586;SDS011;5341;47.606;7.576;2023-05-10T09:49:28;3.55;;;1.33;;
10586;SDS011;5341;47.606;7.576;2023-05-10T09:52:02;1.83;;;1.17;;
10586;SDS011;5341;47.606;7.576;2023-05-10T09:54:31;2.85;;;1.20;;
10586;SDS011;5341;47.606;7.576;2023-05-10T09:56:59;3.10;;;1.40;;
10586;SDS011;5341;47.606;7.576;2023-05-10T09:59:28;1.75;;;1.00;;
10586;SDS011;5341;47.606;7.576;2023-05-10T10:01:56;2.15;;;1.25;;
10586;SDS011;5341;47.606;7.576;2023-05-10T10:04:25;1.58;;;1.08;;
10586;SDS011;5341;47.606;7.576;2023-05-10T10:06:59;4.63;;;1.35;;
10586;SDS011;5341;47.606;7.576;2023-05-10T10:09:31;2.00;;;1.20;;
10586;SDS011;5341;47.606;7.576;2023-05-10T10:11:59;3.65;;;1.42;;
10586;SDS011;5341;47.606;7.576;2023-05-10T10:14:29;2.40;;;1.27;;
10586;SDS011;5341;47.606;7.576;2023-05-10T10:16:57;5.45;;;1.20;;
10586;SDS011;5341;47.606;7.576;2023-05-10T10:19:27;3.83;;;1.33;;
10586;SDS011;5341;47.606;7.576;2023-05-10T10:21:55;2.75;;;1.33;;
10586;SDS011;5341;47.606;7.576;2023-05-10T10:24:22;2.10;;;1.25;;
10586;SDS011;5341;47.606;7.576;2023-05-10T10:26:49;2.63;;;1.23;;
10586;SDS011;5341;47.606;7.576;2023-05-10T10:29:23;2.50;;;1.35;;
10586;SDS011;5341;47.606;7.576;2023-05-10T10:32:02;3.45;;;1.13;;
10586;SDS011;5341;47.606;7.576;2023-05-10T10:34:36;4.55;;;1.42;;
10586;SDS011;5341;47.606;7.576;2023-05-10T10:37:05;2.13;;;1.13;;
10586;SDS011;5341;47.606;7.576;2023-05-10T10:39:33;2.72;;;1.10;;
10586;SDS011;5341;47.606;7.576;2023-05-10T10:42:02;3.58;;;1.40;;
10586;SDS011;5341;47.606;7.576;2023-05-10T10:44:37;1.90;;;1.15;;
10586;SDS011;5341;47.606;7.576;2023-05-10T10:50:04;5.25;;;1.30;;
10586;SDS011;5341;47.606;7.576;2023-05-10T10:52:34;3.92;;;1.20;;
10586;SDS011;5341;47.606;7.576;2023-05-10T10:55:02;2.20;;;1.38;;
10586;SDS011;5341;47.606;7.576;2023-05-10T10:57:32;2.95;;;1.27;;
10586;SDS011;5341;47.606;7.576;2023-05-10T11:00:18;4.30;;;1.38;;
10586;SDS011;5341;47.606;7.576;2023-05-10T11:02:48;5.88;;;1.42;;
10586;SDS011;5341;47.606;7.576;2023-05-10T11:05:25;5.07;;;1.42;;
10586;SDS011;5341;47.606;7.576;2023-05-10T11:08:11;4.32;;;1.20;;
10586;SDS011;5341;47.606;7.576;2023-05-10T11:10:48;4.88;;;1.60;;
10586;SDS011;5341;47.606;7.576;2023-05-10T11:13:21;4.85;;;1.40;;
10586;SDS011;5341;47.606;7.576;2023-05-10T11:15:54;5.35;;;1.30;;
10586;SDS011;5341;47.606;7.576;2023-05-10T11:18:24;4.20;;;1.58;;
10586;SDS011;5341;47.606;7.576;2023-05-10T11:20:56;3.00;;;1.50;;
10586;SDS011;5341;47.606;7.576;2023-05-10T11:23:29;3.20;;;1.13;;
10586;SDS011;5341;47.606;7.576;2023-05-10T11:25:57;4.65;;;1.42;;
10586;SDS011;5341;47.606;7.576;2023-05-10T11:28:26;3.80;;;1.35;;
10586;SDS011;5341;47.606;7.576;2023-05-10T11:30:54;2.80;;;1.30;;
10586;SDS011;5341;47.606;7.576;2023-05-10T11:33:22;2.70;;;1.23;;
10586;SDS011;5341;47.606;7.576;2023-05-10T11:35:49;5.53;;;1.55;;
10586;SDS011;5341;47.606;7.576;2023-05-10T11:38:18;2.58;;;1.30;;
10586;SDS011;5341;47.606;7.576;2023-05-10T11:40:45;1.35;;;1.10;;
10586;SDS011;5341;47.606;7.576;2023-05-10T11:43:12;3.28;;;1.40;;
10586;SDS011;5341;47.606;7.576;2023-05-10T11:45:40;3.17;;;1.30;;
10586;SDS011;5341;47.606;7.576;2023-05-10T11:48:08;2.85;;;1.25;;
10586;SDS011;5341;47.606;7.576;2023-05-10T11:50:35;4.20;;;1.52;;
10586;SDS011;5341;47.606;7.576;2023-05-10T11:53:03;4.13;;;1.10;;
10586;SDS011;5341;47.606;7.576;2023-05-10T11:55:34;3.03;;;1.30;;
10586;SDS011;5341;47.606;7.576;2023-05-10T11:58:01;1.23;;;0.93;;
10586;SDS011;5341;47.606;7.576;2023-05-10T12:00:29;2.45;;;1.23;;
10586;SDS011;5341;47.606;7.576;2023-05-10T12:02:58;3.35;;;1.08;;
10586;SDS011;5341;47.606;7.576;2023-05-10T12:05:26;1.98;;;1.20;;
10586;SDS011;5341;47.606;7.576;2023-05-10T12:10:41;1.75;;;1.20;;
10586;SDS011;5341;47.606;7.576;2023-05-10T12:13:12;2.20;;;1.10;;
10586;SDS011;5341;47.606;7.576;2023-05-10T12:15:40;3.22;;;1.30;;
10586;SDS011;5341;47.606;7.576;2023-05-10T12:18:09;1.55;;;1.10;;
10586;SDS011;5341;47.606;7.576;2023-05-10T12:20:37;2.42;;;1.10;;
10586;SDS011;5341;47.606;7.576;2023-05-10T12:23:04;1.33;;;0.90;;
10586;SDS011;5341;47.606;7.576;2023-05-10T12:25:32;2.40;;;0.95;;
10586;SDS011;5341;47.606;7.576;2023-05-10T12:28:04;2.72;;;0.73;;
10586;SDS011;5341;47.606;7.576;2023-05-10T12:30:33;0.93;;;0.80;;
10586;SDS011;5341;47.606;7.576;2023-05-10T12:33:02;1.73;;;1.02;;
10586;SDS011;5341;47.606;7.576;2023-05-10T12:35:38;1.65;;;0.90;;
10586;SDS011;5341;47.606;7.576;2023-05-10T12:38:27;1.77;;;0.95;;
10586;SDS011;5341;47.606;7.576;2023-05-10T12:40:56;2.75;;;1.08;;
10586;SDS011;5341;47.606;7.576;2023-05-10T12:43:26;1.75;;;0.77;;
10586;SDS011;5341;47.606;7.576;2023-05-10T12:45:53;2.20;;;0.90;;
10586;SDS011;5341;47.606;7.576;2023-05-10T12:48:21;0.93;;;0.68;;
10586;SDS011;5341;47.606;7.576;2023-05-10T12:50:48;1.23;;;0.65;;
10586;SDS011;5341;47.606;7.576;2023-05-10T12:53:16;4.68;;;0.73;;
10586;SDS011;5341;47.606;7.576;2023-05-10T12:55:43;1.33;;;0.90;;
10586;SDS011;5341;47.606;7.576;2023-05-10T12:58:11;1.00;;;0.98;;
10586;SDS011;5341;47.606;7.576;2023-05-10T13:00:39;2.53;;;0.90;;
10586;SDS011;5341;47.606;7.576;2023-05-10T13:03:07;1.13;;;0.82;;
10586;SDS011;5341;47.606;7.576;2023-05-10T13:05:34;1.65;;;0.80;;
10586;SDS011;5341;47.606;7.576;2023-05-10T13:08:01;2.22;;;1.20;;
10586;SDS011;5341;47.606;7.576;2023-05-10T13:10:29;0.70;;;0.70;;
10586;SDS011;5341;47.606;7.576;2023-05-10T13:12:58;2.05;;;1.02;;
10586;SDS011;5341;47.606;7.576;2023-05-10T13:15:26;2.58;;;1.00;;
10586;SDS011;5341;47.606;7.576;2023-05-10T13:17:54;4.03;;;1.05;;
10586;SDS011;5341;47.606;7.576;2023-05-10T13:20:22;3.33;;;1.00;;
10586;SDS011;5341;47.606;7.576;2023-05-10T13:22:49;1.85;;;0.90;;
10586;SDS011;5341;47.606;7.576;2023-05-10T13:25:16;1.35;;;0.80;;
10586;SDS011;5341;47.606;7.576;2023-05-10T13:27:44;1.67;;;1.17;;
10586;SDS011;5341;47.606;7.576;2023-05-10T13:30:11;1.75;;;0.93;;
10586;SDS011;5341;47.606;7.576;2023-05-10T13:32:39;2.15;;;1.10;;
10586;SDS011;5341;47.606;7.576;2023-05-10T13:35:08;2.97;;;1.05;;
10586;SDS011;5341;47.606;7.576;2023-05-10T13:37:35;2.25;;;1.27;;
10586;SDS011;5341;47.606;7.576;2023-05-10T13:40:03;1.55;;;0.93;;
10586;SDS011;5341;47.606;7.576;2023-05-10T13:42:32;2.88;;;0.93;;
10586;SDS011;5341;47.606;7.576;2023-05-10T13:44:59;2.20;;;0.90;;
10586;SDS011;5341;47.606;7.576;2023-05-10T13:47:27;1.95;;;0.85;;
10586;SDS011;5341;47.606;7.576;2023-05-10T13:49:55;0.63;;;0.63;;
10586;SDS011;5341;47.606;7.576;2023-05-10T13:52:24;1.20;;;0.70;;
10586;SDS011;5341;47.606;7.576;2023-05-10T13:54:51;2.00;;;1.30;;
10586;SDS011;5341;47.606;7.576;2023-05-10T13:57:20;3.50;;;0.80;;
10586;SDS011;5341;47.606;7.576;2023-05-10T13:59:48;1.42;;;0.70;;
10586;SDS011;5341;47.606;7.576;2023-05-10T14:02:15;1.00;;;0.70;;
10586;SDS011;5341;47.606;7.576;2023-05-10T14:04:43;0.98;;;0.50;;
10586;SDS011;5341;47.606;7.576;2023-05-10T14:07:10;1.27;;;0.60;;
10586;SDS011;5341;47.606;7.576;2023-05-10T14:09:39;3.10;;;0.90;;
10586;SDS011;5341;47.606;7.576;2023-05-10T14:12:07;1.90;;;0.80;;
10586;SDS011;5341;47.606;7.576;2023-05-10T14:14:34;3.40;;;0.73;;
10586;SDS011;5341;47.606;7.576;2023-05-10T14:17:01;1.20;;;0.88;;
10586;SDS011;5341;47.606;7.576;2023-05-10T14:19:29;1.00;;;0.75;;
10586;SDS011;5341;47.606;7.576;2023-05-10T14:21:57;1.45;;;0.70;;
10586;SDS011;5341;47.606;7.576;2023-05-10T14:24:25;4.88;;;1.10;;
10586;SDS011;5341;47.606;7.576;2023-05-10T14:26:54;2.92;;;0.95;;
10586;SDS011;5341;47.606;7.576;2023-05-10T14:29:21;1.27;;;0.90;;
10586;SDS011;5341;47.606;7.576;2023-05-10T14:31:49;1.95;;;1.05;;
10586;SDS011;5341;47.606;7.576;2023-05-10T14:34:17;4.97;;;1.30;;
10586;SDS011;5341;47.606;7.576;2023-05-10T14:36:45;1.52;;;0.90;;
10586;SDS011;5341;47.606;7.576;2023-05-10T14:39:12;1.20;;;0.68;;
10586;SDS011;5341;47.606;7.576;2023-05-10T14:41:39;1.52;;;0.70;;
10586;SDS011;5341;47.606;7.576;2023-05-10T14:44:09;0.90;;;0.50;;
10586;SDS011;5341;47.606;7.576;2023-05-10T14:46:37;0.70;;;0.50;;
10586;SDS011;5341;47.606;7.576;2023-05-10T14:49:04;1.80;;;1.20;;
10586;SDS011;5341;47.606;7.576;2023-05-10T14:51:32;1.17;;;0.70;;
10586;SDS011;5341;47.606;7.576;2023-05-10T14:53:59;2.90;;;0.90;;
10586;SDS011;5341;47.606;7.576;2023-05-10T14:56:27;1.25;;;0.85;;
10586;SDS011;5341;47.606;7.576;2023-05-10T14:58:55;1.95;;;0.80;;
10586;SDS011;5341;47.606;7.576;2023-05-10T15:01:23;3.35;;;0.90;;
10586;SDS011;5341;47.606;7.576;2023-05-10T15:03:51;1.67;;;0.80;;
10586;SDS011;5341;47.606;7.576;2023-05-10T15:06:20;0.93;;;0.70;;
10586;SDS011;5341;47.606;7.576;2023-05-10T15:08:51;1.55;;;0.85;;
10586;SDS011;5341;47.606;7.576;2023-05-10T15:11:18;1.67;;;0.90;;
10586;SDS011;5341;47.606;7.576;2023-05-10T15:13:45;2.70;;;0.80;;
10586;SDS011;5341;47.606;7.576;2023-05-10T15:16:13;4.60;;;1.00;;
10586;SDS011;5341;47.606;7.576;2023-05-10T15:18:42;2.25;;;0.80;;
10586;SDS011;5341;47.606;7.576;2023-05-10T15:21:09;2.42;;;0.90;;
10586;SDS011;5341;47.606;7.576;2023-05-10T15:23:37;1.45;;;0.70;;